LOT29M EPKK-EPGD
Flight info
| Callsign | LOT29M |
|---|---|
| Flight time | 0h 56m |
| Altitude | 30000 |
| Route | NAVUR N744 OVBOR N133 GRUDA Z95 OSLOG |
| Aircraft | E75L/M-SDE3GILORVW/S |
Departure
| Time | 2026-05-07 04:38 |
|---|---|
| Airport | Kraków John Paul II International Airport (EPKK) |
Arrival
| Time | 2026-05-07 05:34 |
|---|---|
| Airport | Gdańsk Lech Wałęsa Airport (EPGD) |
| Time | Latitude | Longitude | Altitude | Speed | Heading |
|---|---|---|---|---|---|
| 2026-05-07 04:22 | 50.07316 | 19.80112 | 788 ft | 0 kts | 168° |
| 2026-05-07 04:28 | 50.07323 | 19.80110 | 788 ft | 3 kts | 168° |
| 2026-05-07 04:28 | 50.07340 | 19.80104 | 788 ft | 2 kts | 168° |
| 2026-05-07 04:28 | 50.07357 | 19.80099 | 788 ft | 2 kts | 168° |
| 2026-05-07 04:29 | 50.07374 | 19.80093 | 788 ft | 2 kts | 168° |
| 2026-05-07 04:29 | 50.07391 | 19.80088 | 788 ft | 2 kts | 168° |
| 2026-05-07 04:29 | 50.07408 | 19.80082 | 788 ft | 2 kts | 168° |
| 2026-05-07 04:29 | 50.07417 | 19.80079 | 788 ft | 0 kts | 168° |
| 2026-05-07 04:33 | 50.07416 | 19.80081 | 788 ft | 0 kts | 138° |
| 2026-05-07 04:33 | 50.07414 | 19.80100 | 788 ft | 7 kts | 96° |
| 2026-05-07 04:33 | 50.07424 | 19.80195 | 788 ft | 11 kts | 77° |
| 2026-05-07 04:34 | 50.07443 | 19.80324 | 788 ft | 14 kts | 77° |
| 2026-05-07 04:34 | 50.07489 | 19.80390 | 788 ft | 8 kts | 10° |
| 2026-05-07 04:34 | 50.07552 | 19.80417 | 788 ft | 11 kts | 15° |
| 2026-05-07 04:34 | 50.07635 | 19.80409 | 788 ft | 13 kts | 347° |
| 2026-05-07 04:35 | 50.07736 | 19.80374 | 788 ft | 16 kts | 347° |
| 2026-05-07 04:35 | 50.07819 | 19.80345 | 788 ft | 0 kts | 347° |
| 2026-05-07 04:35 | 50.07829 | 19.80341 | 788 ft | 3 kts | 347° |
| 2026-05-07 04:35 | 50.07863 | 19.80329 | 788 ft | 7 kts | 347° |
| 2026-05-07 04:36 | 50.07921 | 19.80308 | 788 ft | 10 kts | 347° |
| 2026-05-07 04:36 | 50.08001 | 19.80279 | 787 ft | 4 kts | 346° |
| 2026-05-07 04:36 | 50.08016 | 19.80272 | 787 ft | 0 kts | 323° |
| 2026-05-07 04:36 | 50.08016 | 19.80270 | 787 ft | 0 kts | 295° |
| 2026-05-07 04:37 | 50.08019 | 19.80236 | 799 ft | 1 kts | 259° |
| 2026-05-07 04:37 | 50.08018 | 19.80225 | 806 ft | 2 kts | 256° |
| 2026-05-07 04:37 | 50.08002 | 19.80115 | 789 ft | 37 kts | 258° |
| 2026-05-07 04:37 | 50.07886 | 19.79277 | 790 ft | 118 kts | 257° |
| 2026-05-07 04:38 | 50.07685 | 19.77748 | 1014 ft | 164 kts | 259° |
| 2026-05-07 04:38 | 50.07489 | 19.75949 | 2027 ft | 163 kts | 259° |
| 2026-05-07 04:38 | 50.07241 | 19.74202 | 2811 ft | 176 kts | 251° |
| 2026-05-07 04:38 | 50.06917 | 19.72313 | 3573 ft | 181 kts | 252° |
| 2026-05-07 04:39 | 50.06616 | 19.70302 | 4197 ft | 196 kts | 254° |
| 2026-05-07 04:39 | 50.06330 | 19.68226 | 5064 ft | 205 kts | 255° |
| 2026-05-07 04:39 | 50.06051 | 19.65926 | 5721 ft | 226 kts | 264° |
| 2026-05-07 04:39 | 50.06480 | 19.63456 | 6391 ft | 253 kts | 298° |
| 2026-05-07 04:40 | 50.07854 | 19.61563 | 7060 ft | 279 kts | 330° |
| 2026-05-07 04:40 | 50.09776 | 19.60943 | 7884 ft | 293 kts | 356° |
| 2026-05-07 04:40 | 50.11841 | 19.61243 | 8711 ft | 301 kts | 9° |
| 2026-05-07 04:40 | 50.13837 | 19.62216 | 9513 ft | 308 kts | 21° |
| 2026-05-07 04:41 | 50.15759 | 19.63764 | 10192 ft | 317 kts | 33° |
| 2026-05-07 04:41 | 50.17515 | 19.65985 | 10632 ft | 331 kts | 39° |
| 2026-05-07 04:41 | 50.19311 | 19.68354 | 11179 ft | 341 kts | 40° |
| 2026-05-07 04:41 | 50.21121 | 19.70806 | 11935 ft | 345 kts | 41° |
| 2026-05-07 04:42 | 50.22927 | 19.73265 | 12710 ft | 349 kts | 41° |
| 2026-05-07 04:42 | 50.24776 | 19.75781 | 13518 ft | 353 kts | 41° |
| 2026-05-07 04:42 | 50.26641 | 19.78324 | 14270 ft | 357 kts | 41° |
| 2026-05-07 04:42 | 50.28510 | 19.80876 | 15008 ft | 361 kts | 41° |
| 2026-05-07 04:43 | 50.30423 | 19.83488 | 15777 ft | 365 kts | 41° |
| 2026-05-07 04:43 | 50.32343 | 19.86092 | 16508 ft | 369 kts | 39° |
| 2026-05-07 04:43 | 50.34589 | 19.88127 | 17236 ft | 373 kts | 21° |
| 2026-05-07 04:43 | 50.37050 | 19.89337 | 17996 ft | 376 kts | 12° |
| 2026-05-07 04:44 | 50.39643 | 19.90089 | 18687 ft | 378 kts | 2° |
| 2026-05-07 04:44 | 50.42282 | 19.90240 | 19411 ft | 380 kts | 359° |
| 2026-05-07 04:44 | 50.44945 | 19.90312 | 20175 ft | 384 kts | 358° |
| 2026-05-07 04:44 | 50.47612 | 19.90352 | 20902 ft | 388 kts | 358° |
| 2026-05-07 04:45 | 50.50338 | 19.90390 | 21606 ft | 392 kts | 358° |
| 2026-05-07 04:45 | 50.53055 | 19.90427 | 22271 ft | 396 kts | 358° |
| 2026-05-07 04:45 | 50.55826 | 19.90465 | 22943 ft | 400 kts | 358° |
| 2026-05-07 04:45 | 50.58640 | 19.90505 | 23587 ft | 404 kts | 358° |
| 2026-05-07 04:46 | 50.61473 | 19.90521 | 24174 ft | 407 kts | 358° |
| 2026-05-07 04:46 | 50.64298 | 19.90583 | 24797 ft | 410 kts | 358° |
| 2026-05-07 04:46 | 50.67173 | 19.90644 | 25419 ft | 414 kts | 358° |
| 2026-05-07 04:46 | 50.70048 | 19.90704 | 25995 ft | 418 kts | 358° |
| 2026-05-07 04:47 | 50.72973 | 19.90782 | 26535 ft | 421 kts | 358° |
| 2026-05-07 04:47 | 50.75926 | 19.90826 | 27064 ft | 424 kts | 358° |
| 2026-05-07 04:47 | 50.78897 | 19.90878 | 27569 ft | 427 kts | 358° |
| 2026-05-07 04:47 | 50.81851 | 19.90928 | 28056 ft | 430 kts | 358° |
| 2026-05-07 04:48 | 50.84875 | 19.90987 | 28530 ft | 433 kts | 359° |
| 2026-05-07 04:48 | 50.87863 | 19.91046 | 28967 ft | 435 kts | 358° |
| 2026-05-07 04:48 | 50.90916 | 19.91058 | 29407 ft | 438 kts | 358° |
| 2026-05-07 04:48 | 50.93979 | 19.91075 | 29709 ft | 436 kts | 358° |
| 2026-05-07 04:49 | 51.00070 | 19.91506 | 29797 ft | 444 kts | 8° |
| 2026-05-07 04:49 | 51.03095 | 19.92760 | 29814 ft | 452 kts | 19° |
| 2026-05-07 04:49 | 51.05975 | 19.94811 | 29811 ft | 461 kts | 28° |
| 2026-05-07 04:50 | 51.11440 | 20.00081 | 29799 ft | 459 kts | 24° |
| 2026-05-07 04:50 | 51.14400 | 20.01812 | 29797 ft | 446 kts | 14° |
| 2026-05-07 04:50 | 51.17439 | 20.02702 | 29808 ft | 440 kts | 4° |
| 2026-05-07 04:51 | 51.20470 | 20.02749 | 29815 ft | 444 kts | 353° |
| 2026-05-07 04:51 | 51.23561 | 20.01941 | 29820 ft | 453 kts | 343° |
| 2026-05-07 04:51 | 51.29243 | 19.97925 | 29808 ft | 443 kts | 323° |
| 2026-05-07 04:52 | 51.33829 | 19.91505 | 29794 ft | 441 kts | 316° |
| 2026-05-07 04:52 | 51.38079 | 19.87221 | 29800 ft | 432 kts | 333° |
| 2026-05-07 04:53 | 51.43952 | 19.84434 | 29819 ft | 451 kts | 343° |
| 2026-05-07 04:53 | 51.49933 | 19.81448 | 29808 ft | 450 kts | 339° |
| 2026-05-07 04:54 | 51.55871 | 19.78341 | 29808 ft | 450 kts | 339° |
| 2026-05-07 04:54 | 51.61829 | 19.75214 | 29815 ft | 450 kts | 339° |
| 2026-05-07 04:55 | 51.67779 | 19.72090 | 29820 ft | 450 kts | 339° |
| 2026-05-07 04:55 | 51.73719 | 19.68944 | 29820 ft | 450 kts | 339° |
| 2026-05-07 04:56 | 51.79695 | 19.65769 | 29829 ft | 450 kts | 340° |
| 2026-05-07 04:56 | 51.85691 | 19.62826 | 29822 ft | 451 kts | 340° |
| 2026-05-07 04:57 | 51.91690 | 19.59889 | 29832 ft | 451 kts | 340° |
| 2026-05-07 04:57 | 51.97634 | 19.56975 | 29816 ft | 442 kts | 340° |
| 2026-05-07 04:58 | 52.03609 | 19.54031 | 29826 ft | 451 kts | 340° |
| 2026-05-07 04:58 | 52.09617 | 19.51066 | 29837 ft | 451 kts | 340° |
| 2026-05-07 04:59 | 52.15604 | 19.48100 | 29837 ft | 451 kts | 340° |
| 2026-05-07 04:59 | 52.21618 | 19.45115 | 29839 ft | 451 kts | 340° |
| 2026-05-07 05:00 | 52.27625 | 19.42123 | 29841 ft | 451 kts | 340° |
| 2026-05-07 05:00 | 52.33613 | 19.39134 | 29846 ft | 451 kts | 340° |
| 2026-05-07 05:01 | 52.39641 | 19.36115 | 29848 ft | 451 kts | 340° |
| 2026-05-07 05:01 | 52.45621 | 19.33109 | 29855 ft | 451 kts | 340° |
| 2026-05-07 05:02 | 52.51627 | 19.30085 | 29863 ft | 451 kts | 340° |
| 2026-05-07 05:02 | 52.57600 | 19.27068 | 29858 ft | 451 kts | 339° |
| 2026-05-07 05:03 | 52.63625 | 19.24016 | 29863 ft | 451 kts | 339° |
| 2026-05-07 05:03 | 52.69617 | 19.20971 | 29866 ft | 451 kts | 339° |
| 2026-05-07 05:04 | 52.75589 | 19.17928 | 29869 ft | 451 kts | 339° |
| 2026-05-07 05:04 | 52.81576 | 19.14868 | 29870 ft | 451 kts | 339° |
| 2026-05-07 05:05 | 52.84559 | 19.13342 | 29288 ft | 443 kts | 339° |
| 2026-05-07 05:05 | 52.87499 | 19.11832 | 28201 ft | 442 kts | 339° |
| 2026-05-07 05:05 | 52.90401 | 19.10341 | 27338 ft | 438 kts | 339° |
| 2026-05-07 05:05 | 52.93302 | 19.08849 | 26510 ft | 433 kts | 339° |
| 2026-05-07 05:06 | 52.96161 | 19.07378 | 25717 ft | 428 kts | 339° |
| 2026-05-07 05:06 | 52.98977 | 19.05924 | 24950 ft | 423 kts | 339° |
| 2026-05-07 05:06 | 53.01787 | 19.04473 | 24187 ft | 419 kts | 339° |
| 2026-05-07 05:06 | 53.04563 | 19.03038 | 23447 ft | 415 kts | 339° |
| 2026-05-07 05:07 | 53.07312 | 19.01614 | 22630 ft | 410 kts | 339° |
| 2026-05-07 05:07 | 53.09995 | 19.00224 | 21842 ft | 406 kts | 339° |
| 2026-05-07 05:07 | 53.12677 | 18.98832 | 21080 ft | 401 kts | 339° |
| 2026-05-07 05:07 | 53.15336 | 18.97451 | 20345 ft | 396 kts | 339° |
| 2026-05-07 05:08 | 53.17970 | 18.96081 | 19624 ft | 392 kts | 339° |
| 2026-05-07 05:08 | 53.20534 | 18.94744 | 18935 ft | 388 kts | 339° |
| 2026-05-07 05:08 | 53.23109 | 18.93398 | 18246 ft | 384 kts | 339° |
| 2026-05-07 05:08 | 53.25659 | 18.92065 | 17511 ft | 380 kts | 340° |
| 2026-05-07 05:09 | 53.28151 | 18.90760 | 16789 ft | 375 kts | 340° |
| 2026-05-07 05:09 | 53.30639 | 18.89457 | 16103 ft | 371 kts | 340° |
| 2026-05-07 05:09 | 53.33065 | 18.88184 | 15445 ft | 367 kts | 340° |
| 2026-05-07 05:09 | 53.35489 | 18.86911 | 14797 ft | 363 kts | 340° |
| 2026-05-07 05:10 | 53.37882 | 18.85652 | 14151 ft | 364 kts | 340° |
| 2026-05-07 05:10 | 53.40297 | 18.84381 | 13688 ft | 357 kts | 341° |
| 2026-05-07 05:10 | 53.42653 | 18.83141 | 13201 ft | 351 kts | 341° |
| 2026-05-07 05:10 | 53.44959 | 18.81922 | 12763 ft | 348 kts | 341° |
| 2026-05-07 05:11 | 53.47291 | 18.80691 | 12475 ft | 349 kts | 341° |
| 2026-05-07 05:11 | 53.49606 | 18.79600 | 12203 ft | 349 kts | 345° |
| 2026-05-07 05:11 | 53.51986 | 18.78734 | 12026 ft | 347 kts | 347° |
| 2026-05-07 05:11 | 53.54338 | 18.78014 | 11956 ft | 348 kts | 351° |
| 2026-05-07 05:12 | 53.56764 | 18.77634 | 11921 ft | 349 kts | 354° |
| 2026-05-07 05:12 | 53.59148 | 18.77335 | 11896 ft | 337 kts | 355° |
| 2026-05-07 05:12 | 53.61429 | 18.77075 | 11880 ft | 318 kts | 355° |
| 2026-05-07 05:12 | 53.63619 | 18.76826 | 11898 ft | 311 kts | 355° |
| 2026-05-07 05:13 | 53.65757 | 18.76583 | 11915 ft | 313 kts | 355° |
| 2026-05-07 05:13 | 53.67948 | 18.76335 | 11906 ft | 314 kts | 355° |
| 2026-05-07 05:13 | 53.70133 | 18.76086 | 11910 ft | 314 kts | 355° |
| 2026-05-07 05:13 | 53.72291 | 18.75840 | 11925 ft | 314 kts | 354° |
| 2026-05-07 05:14 | 53.74486 | 18.75572 | 11919 ft | 314 kts | 354° |
| 2026-05-07 05:14 | 53.76675 | 18.75400 | 11903 ft | 314 kts | 359° |
| 2026-05-07 05:14 | 53.78846 | 18.75460 | 11931 ft | 314 kts | 0° |
| 2026-05-07 05:14 | 53.81052 | 18.75555 | 11731 ft | 316 kts | 0° |
| 2026-05-07 05:15 | 53.83223 | 18.75662 | 11443 ft | 312 kts | 0° |
| 2026-05-07 05:15 | 53.85389 | 18.75770 | 11127 ft | 305 kts | 0° |
| 2026-05-07 05:15 | 53.87449 | 18.75870 | 10709 ft | 289 kts | 0° |
| 2026-05-07 05:15 | 53.89412 | 18.75965 | 10308 ft | 274 kts | 0° |
| 2026-05-07 05:16 | 53.91301 | 18.76056 | 9935 ft | 268 kts | 0° |
| 2026-05-07 05:16 | 53.93153 | 18.76144 | 9566 ft | 268 kts | 0° |
| 2026-05-07 05:16 | 53.95034 | 18.76236 | 9206 ft | 272 kts | 0° |
| 2026-05-07 05:16 | 53.96922 | 18.76327 | 8848 ft | 271 kts | 0° |
| 2026-05-07 05:17 | 53.98812 | 18.76416 | 8487 ft | 271 kts | 0° |
| 2026-05-07 05:17 | 54.00675 | 18.76509 | 8151 ft | 271 kts | 0° |
| 2026-05-07 05:17 | 54.02573 | 18.76599 | 7784 ft | 271 kts | 0° |
| 2026-05-07 05:17 | 54.04467 | 18.76691 | 7446 ft | 271 kts | 0° |
| 2026-05-07 05:18 | 54.06334 | 18.76782 | 7130 ft | 270 kts | 0° |
| 2026-05-07 05:18 | 54.08193 | 18.76871 | 6800 ft | 268 kts | 1° |
| 2026-05-07 05:18 | 54.10045 | 18.76692 | 6453 ft | 265 kts | 342° |
| 2026-05-07 05:18 | 54.11604 | 18.75113 | 6103 ft | 259 kts | 314° |
| 2026-05-07 05:19 | 54.12729 | 18.72780 | 5765 ft | 256 kts | 304° |
| 2026-05-07 05:19 | 54.13702 | 18.70227 | 5442 ft | 255 kts | 299° |
| 2026-05-07 05:19 | 54.14471 | 18.67533 | 5172 ft | 254 kts | 294° |
| 2026-05-07 05:19 | 54.15172 | 18.64794 | 5072 ft | 248 kts | 294° |
| 2026-05-07 05:20 | 54.16123 | 18.62412 | 5021 ft | 242 kts | 322° |
| 2026-05-07 05:20 | 54.17646 | 18.61318 | 5024 ft | 238 kts | 358° |
| 2026-05-07 05:20 | 54.19232 | 18.61859 | 5017 ft | 234 kts | 26° |
| 2026-05-07 05:20 | 54.20668 | 18.63101 | 5029 ft | 233 kts | 31° |
| 2026-05-07 05:21 | 54.22116 | 18.64384 | 5024 ft | 232 kts | 32° |
| 2026-05-07 05:21 | 54.23371 | 18.68957 | 5005 ft | 227 kts | 103° |
| 2026-05-07 05:21 | 54.22759 | 18.71432 | 5020 ft | 228 kts | 117° |
| 2026-05-07 05:22 | 54.21998 | 18.73838 | 5008 ft | 228 kts | 117° |
| 2026-05-07 05:22 | 54.21287 | 18.76244 | 5002 ft | 229 kts | 123° |
| 2026-05-07 05:22 | 54.20107 | 18.78078 | 5009 ft | 231 kts | 143° |
| 2026-05-07 05:22 | 54.18883 | 18.79859 | 5001 ft | 231 kts | 131° |
| 2026-05-07 05:23 | 54.17844 | 18.81910 | 4998 ft | 231 kts | 129° |
| 2026-05-07 05:23 | 54.16842 | 18.84006 | 4988 ft | 222 kts | 128° |
| 2026-05-07 05:23 | 54.15888 | 18.86042 | 4994 ft | 219 kts | 128° |
| 2026-05-07 05:23 | 54.14938 | 18.88091 | 4996 ft | 220 kts | 128° |
| 2026-05-07 05:24 | 54.13997 | 18.90126 | 5004 ft | 221 kts | 128° |
| 2026-05-07 05:24 | 54.13040 | 18.92201 | 4993 ft | 221 kts | 128° |
| 2026-05-07 05:24 | 54.12112 | 18.94259 | 4983 ft | 220 kts | 122° |
| 2026-05-07 05:24 | 54.11704 | 18.96758 | 4998 ft | 222 kts | 88° |
| 2026-05-07 05:25 | 54.12219 | 18.99181 | 5009 ft | 224 kts | 54° |
| 2026-05-07 05:25 | 54.13374 | 19.01002 | 5011 ft | 227 kts | 36° |
| 2026-05-07 05:25 | 54.14722 | 19.02351 | 5005 ft | 226 kts | 26° |
| 2026-05-07 05:25 | 54.16221 | 19.03205 | 5003 ft | 227 kts | 13° |
| 2026-05-07 05:26 | 54.17795 | 19.03594 | 4850 ft | 229 kts | 2° |
| 2026-05-07 05:26 | 54.19380 | 19.03392 | 4650 ft | 227 kts | 352° |
| 2026-05-07 05:26 | 54.20887 | 19.02754 | 4441 ft | 226 kts | 341° |
| 2026-05-07 05:26 | 54.22309 | 19.01571 | 4236 ft | 225 kts | 332° |
| 2026-05-07 05:27 | 54.23560 | 19.00010 | 4034 ft | 226 kts | 318° |
| 2026-05-07 05:27 | 54.24564 | 18.97912 | 3843 ft | 227 kts | 307° |
| 2026-05-07 05:27 | 54.25421 | 18.95627 | 3646 ft | 228 kts | 302° |
| 2026-05-07 05:27 | 54.26116 | 18.93221 | 3456 ft | 228 kts | 297° |
| 2026-05-07 05:28 | 54.26752 | 18.90735 | 3273 ft | 226 kts | 296° |
| 2026-05-07 05:28 | 54.27360 | 18.88310 | 3138 ft | 214 kts | 296° |
| 2026-05-07 05:28 | 54.27903 | 18.86011 | 3048 ft | 202 kts | 295° |
| 2026-05-07 05:28 | 54.28401 | 18.83826 | 2987 ft | 194 kts | 295° |
| 2026-05-07 05:29 | 54.28889 | 18.81685 | 2981 ft | 191 kts | 300° |
| 2026-05-07 05:29 | 54.29536 | 18.79716 | 3001 ft | 192 kts | 302° |
| 2026-05-07 05:29 | 54.30076 | 18.77618 | 3019 ft | 193 kts | 295° |
| 2026-05-07 05:29 | 54.30576 | 18.75545 | 3009 ft | 183 kts | 298° |
| 2026-05-07 05:30 | 54.31086 | 18.73576 | 3023 ft | 179 kts | 298° |
| 2026-05-07 05:30 | 54.31555 | 18.71671 | 3010 ft | 172 kts | 298° |
| 2026-05-07 05:30 | 54.32023 | 18.69790 | 2991 ft | 170 kts | 298° |
| 2026-05-07 05:30 | 54.32491 | 18.67917 | 2829 ft | 171 kts | 298° |
| 2026-05-07 05:31 | 54.32946 | 18.66079 | 2621 ft | 161 kts | 299° |
| 2026-05-07 05:31 | 54.33369 | 18.64375 | 2427 ft | 151 kts | 300° |
| 2026-05-07 05:31 | 54.33765 | 18.62781 | 2235 ft | 143 kts | 299° |
| 2026-05-07 05:31 | 54.34152 | 18.61222 | 2061 ft | 141 kts | 300° |
| 2026-05-07 05:32 | 54.34534 | 18.59676 | 1903 ft | 142 kts | 300° |
| 2026-05-07 05:32 | 54.34919 | 18.58122 | 1718 ft | 140 kts | 299° |
| 2026-05-07 05:32 | 54.35298 | 18.56593 | 1531 ft | 140 kts | 299° |
| 2026-05-07 05:32 | 54.35676 | 18.55068 | 1327 ft | 138 kts | 299° |
| 2026-05-07 05:33 | 54.36047 | 18.53571 | 1114 ft | 134 kts | 298° |
| 2026-05-07 05:33 | 54.36396 | 18.52133 | 910 ft | 130 kts | 298° |
| 2026-05-07 05:33 | 54.36749 | 18.50717 | 744 ft | 128 kts | 299° |
| 2026-05-07 05:33 | 54.37093 | 18.49300 | 561 ft | 129 kts | 299° |
| 2026-05-07 05:34 | 54.37425 | 18.48011 | 461 ft | 92 kts | 292° |
| 2026-05-07 05:34 | 54.37580 | 18.47359 | 457 ft | 45 kts | 292° |
| 2026-05-07 05:34 | 54.37664 | 18.47024 | 452 ft | 24 kts | 301° |
| 2026-05-07 05:34 | 54.37760 | 18.46826 | 449 ft | 0 kts | 320° |
| 2026-05-07 05:35 | 54.37762 | 18.46822 | 449 ft | 3 kts | 320° |
| 2026-05-07 05:36 | 54.37792 | 18.46780 | 449 ft | 9 kts | 320° |
| 2026-05-07 05:36 | 54.37857 | 18.46694 | 449 ft | 14 kts | 324° |
| 2026-05-07 05:36 | 54.37940 | 18.46589 | 451 ft | 15 kts | 332° |
| 2026-05-07 05:36 | 54.38025 | 18.46607 | 451 ft | 9 kts | 22° |
| 2026-05-07 05:37 | 54.38070 | 18.46597 | 451 ft | 5 kts | 326° |
| 2026-05-07 05:37 | 54.38083 | 18.46594 | 451 ft | 0 kts | 357° |
| 2026-05-07 05:37 | 54.38099 | 18.46603 | 451 ft | 5 kts | 23° |
| 2026-05-07 05:37 | 54.38117 | 18.46616 | 451 ft | 0 kts | 23° |